sensor_id;sensor_type;location;lat;lon;timestamp;temperature;humidity
26212;DHT22;13951;49.516;6.094;2022-09-23T00:02:00;9.10;99.90
26212;DHT22;13951;49.516;6.094;2022-09-23T00:04:33;9.10;99.90
26212;DHT22;13951;49.516;6.094;2022-09-23T00:07:06;9.10;99.90
26212;DHT22;13951;49.516;6.094;2022-09-23T00:09:39;9.10;99.90
26212;DHT22;13951;49.516;6.094;2022-09-23T00:12:11;9.10;99.90
26212;DHT22;13951;49.516;6.094;2022-09-23T00:14:44;9.10;99.90
26212;DHT22;13951;49.516;6.094;2022-09-23T00:17:17;9.00;99.90
26212;DHT22;13951;49.516;6.094;2022-09-23T00:19:50;9.00;99.90
26212;DHT22;13951;49.516;6.094;2022-09-23T00:22:22;8.90;99.90
26212;DHT22;13951;49.516;6.094;2022-09-23T00:24:55;8.90;99.90
26212;DHT22;13951;49.516;6.094;2022-09-23T00:27:28;8.90;99.90
26212;DHT22;13951;49.516;6.094;2022-09-23T00:30:05;8.90;99.90
26212;DHT22;13951;49.516;6.094;2022-09-23T00:32:38;8.90;99.90
26212;DHT22;13951;49.516;6.094;2022-09-23T00:35:12;8.90;99.90
26212;DHT22;13951;49.516;6.094;2022-09-23T00:37:44;8.90;99.90
26212;DHT22;13951;49.516;6.094;2022-09-23T00:40:17;8.90;99.90
26212;DHT22;13951;49.516;6.094;2022-09-23T00:42:50;8.90;99.90
26212;DHT22;13951;49.516;6.094;2022-09-23T00:45:23;8.80;99.90
26212;DHT22;13951;49.516;6.094;2022-09-23T00:47:58;8.80;99.90
26212;DHT22;13951;49.516;6.094;2022-09-23T00:50:36;8.80;99.90
26212;DHT22;13951;49.516;6.094;2022-09-23T00:53:13;8.70;99.90
26212;DHT22;13951;49.516;6.094;2022-09-23T00:55:51;8.70;99.90
26212;DHT22;13951;49.516;6.094;2022-09-23T00:58:28;8.70;99.90
26212;DHT22;13951;49.516;6.094;2022-09-23T01:01:03;8.70;99.90
26212;DHT22;13951;49.516;6.094;2022-09-23T01:03:36;8.60;99.90
26212;DHT22;13951;49.516;6.094;2022-09-23T01:06:10;8.60;99.90
26212;DHT22;13951;49.516;6.094;2022-09-23T01:08:45;8.60;99.90
26212;DHT22;13951;49.516;6.094;2022-09-23T01:11:45;8.50;99.90
26212;DHT22;13951;49.516;6.094;2022-09-23T01:14:38;8.50;99.90
26212;DHT22;13951;49.516;6.094;2022-09-23T01:17:54;8.50;99.90
26212;DHT22;13951;49.516;6.094;2022-09-23T01:20:38;8.50;99.90
26212;DHT22;13951;49.516;6.094;2022-09-23T01:23:46;8.40;99.90
26212;DHT22;13951;49.516;6.094;2022-09-23T01:34:56;8.30;99.90
26212;DHT22;13951;49.516;6.094;2022-09-23T01:37:56;8.30;99.90
26212;DHT22;13951;49.516;6.094;2022-09-23T01:41:01;8.30;99.90
26212;DHT22;13951;49.516;6.094;2022-09-23T01:46:25;8.30;99.90
26212;DHT22;13951;49.516;6.094;2022-09-23T01:51:50;8.30;99.90
26212;DHT22;13951;49.516;6.094;2022-09-23T01:54:36;8.30;99.90
26212;DHT22;13951;49.516;6.094;2022-09-23T01:57:32;8.30;99.90
26212;DHT22;13951;49.516;6.094;2022-09-23T02:00:10;8.30;99.90
26212;DHT22;13951;49.516;6.094;2022-09-23T02:05:31;8.30;99.90
26212;DHT22;13951;49.516;6.094;2022-09-23T02:08:26;8.20;99.90
26212;DHT22;13951;49.516;6.094;2022-09-23T02:11:02;8.20;99.90
26212;DHT22;13951;49.516;6.094;2022-09-23T02:13:51;8.10;99.90
26212;DHT22;13951;49.516;6.094;2022-09-23T02:16:32;8.10;99.90
26212;DHT22;13951;49.516;6.094;2022-09-23T02:19:27;8.00;99.90
26212;DHT22;13951;49.516;6.094;2022-09-23T02:22:08;8.00;99.90
26212;DHT22;13951;49.516;6.094;2022-09-23T02:24:43;7.90;99.90
26212;DHT22;13951;49.516;6.094;2022-09-23T02:32:35;7.70;99.90
26212;DHT22;13951;49.516;6.094;2022-09-23T02:38:38;7.70;99.90
26212;DHT22;13951;49.516;6.094;2022-09-23T02:41:16;7.70;99.90
26212;DHT22;13951;49.516;6.094;2022-09-23T02:46:32;7.70;99.90
26212;DHT22;13951;49.516;6.094;2022-09-23T02:49:15;7.70;99.90
26212;DHT22;13951;49.516;6.094;2022-09-23T02:51:50;7.80;99.90
26212;DHT22;13951;49.516;6.094;2022-09-23T02:54:25;7.80;99.90
26212;DHT22;13951;49.516;6.094;2022-09-23T02:57:04;7.80;99.90
26212;DHT22;13951;49.516;6.094;2022-09-23T02:59:38;7.80;99.90
26212;DHT22;13951;49.516;6.094;2022-09-23T03:05:32;7.90;99.90
26212;DHT22;13951;49.516;6.094;2022-09-23T03:11:09;7.80;99.90
26212;DHT22;13951;49.516;6.094;2022-09-23T03:19:29;7.90;99.90
26212;DHT22;13951;49.516;6.094;2022-09-23T03:22:21;7.90;99.90
26212;DHT22;13951;49.516;6.094;2022-09-23T03:25:05;7.90;99.90
26212;DHT22;13951;49.516;6.094;2022-09-23T03:27:39;7.90;99.90
26212;DHT22;13951;49.516;6.094;2022-09-23T03:30:13;7.80;99.90
26212;DHT22;13951;49.516;6.094;2022-09-23T03:32:47;7.90;99.90
26212;DHT22;13951;49.516;6.094;2022-09-23T03:35:23;7.80;99.90
26212;DHT22;13951;49.516;6.094;2022-09-23T03:38:07;7.80;99.90
26212;DHT22;13951;49.516;6.094;2022-09-23T03:40:44;7.80;99.90
26212;DHT22;13951;49.516;6.094;2022-09-23T03:43:22;7.80;99.90
26212;DHT22;13951;49.516;6.094;2022-09-23T03:45:56;7.80;99.90
26212;DHT22;13951;49.516;6.094;2022-09-23T03:48:29;7.70;99.90
26212;DHT22;13951;49.516;6.094;2022-09-23T03:51:20;7.70;99.90
26212;DHT22;13951;49.516;6.094;2022-09-23T03:53:54;7.70;99.90
26212;DHT22;13951;49.516;6.094;2022-09-23T03:56:26;7.70;99.90
26212;DHT22;13951;49.516;6.094;2022-09-23T03:58:59;7.70;99.90
26212;DHT22;13951;49.516;6.094;2022-09-23T04:01:32;7.70;99.90
26212;DHT22;13951;49.516;6.094;2022-09-23T04:04:05;7.70;99.90
26212;DHT22;13951;49.516;6.094;2022-09-23T04:06:38;7.70;99.90
26212;DHT22;13951;49.516;6.094;2022-09-23T04:09:13;7.70;99.90
26212;DHT22;13951;49.516;6.094;2022-09-23T04:11:48;7.70;99.90
26212;DHT22;13951;49.516;6.094;2022-09-23T04:14:22;7.70;99.90
26212;DHT22;13951;49.516;6.094;2022-09-23T04:16:55;7.60;99.90
26212;DHT22;13951;49.516;6.094;2022-09-23T04:19:28;7.60;99.90
26212;DHT22;13951;49.516;6.094;2022-09-23T04:22:01;7.60;99.90
26212;DHT22;13951;49.516;6.094;2022-09-23T04:24:34;7.60;99.90
26212;DHT22;13951;49.516;6.094;2022-09-23T04:27:07;7.60;99.90
26212;DHT22;13951;49.516;6.094;2022-09-23T04:29:40;7.60;99.90
26212;DHT22;13951;49.516;6.094;2022-09-23T04:32:13;7.60;99.90
26212;DHT22;13951;49.516;6.094;2022-09-23T04:34:45;7.60;99.90
26212;DHT22;13951;49.516;6.094;2022-09-23T04:37:18;7.60;99.90
26212;DHT22;13951;49.516;6.094;2022-09-23T04:39:51;7.60;99.90
26212;DHT22;13951;49.516;6.094;2022-09-23T04:42:27;7.60;99.90
26212;DHT22;13951;49.516;6.094;2022-09-23T04:45:00;7.60;99.90
26212;DHT22;13951;49.516;6.094;2022-09-23T04:47:33;7.60;99.90
26212;DHT22;13951;49.516;6.094;2022-09-23T04:50:06;7.60;99.90
26212;DHT22;13951;49.516;6.094;2022-09-23T04:52:39;7.60;99.90
26212;DHT22;13951;49.516;6.094;2022-09-23T04:55:12;7.60;99.90
26212;DHT22;13951;49.516;6.094;2022-09-23T04:57:45;7.60;99.90
26212;DHT22;13951;49.516;6.094;2022-09-23T05:00:18;7.50;99.90
26212;DHT22;13951;49.516;6.094;2022-09-23T05:02:51;7.60;99.90
26212;DHT22;13951;49.516;6.094;2022-09-23T05:05:24;7.60;99.90
26212;DHT22;13951;49.516;6.094;2022-09-23T05:07:57;7.60;99.90
26212;DHT22;13951;49.516;6.094;2022-09-23T05:10:30;7.60;99.90
26212;DHT22;13951;49.516;6.094;2022-09-23T05:13:03;7.60;99.90
26212;DHT22;13951;49.516;6.094;2022-09-23T05:15:36;7.60;99.90
26212;DHT22;13951;49.516;6.094;2022-09-23T05:18:08;7.60;99.90
26212;DHT22;13951;49.516;6.094;2022-09-23T05:20:41;7.60;99.90
26212;DHT22;13951;49.516;6.094;2022-09-23T05:23:14;7.70;99.90
26212;DHT22;13951;49.516;6.094;2022-09-23T05:25:48;7.70;99.90
26212;DHT22;13951;49.516;6.094;2022-09-23T05:28:28;7.70;99.90
26212;DHT22;13951;49.516;6.094;2022-09-23T05:31:09;7.60;99.90
26212;DHT22;13951;49.516;6.094;2022-09-23T05:33:54;7.50;99.90
26212;DHT22;13951;49.516;6.094;2022-09-23T05:36:28;7.50;99.90
26212;DHT22;13951;49.516;6.094;2022-09-23T05:39:09;7.40;99.90
26212;DHT22;13951;49.516;6.094;2022-09-23T05:41:42;7.40;99.90
26212;DHT22;13951;49.516;6.094;2022-09-23T05:44:15;7.30;99.90
26212;DHT22;13951;49.516;6.094;2022-09-23T05:46:47;7.30;99.90
26212;DHT22;13951;49.516;6.094;2022-09-23T05:49:20;7.30;99.90
26212;DHT22;13951;49.516;6.094;2022-09-23T05:52:13;7.30;99.90
26212;DHT22;13951;49.516;6.094;2022-09-23T05:54:46;7.30;99.90
26212;DHT22;13951;49.516;6.094;2022-09-23T05:57:19;7.30;99.90
26212;DHT22;13951;49.516;6.094;2022-09-23T05:59:52;7.30;99.90
26212;DHT22;13951;49.516;6.094;2022-09-23T06:02:25;7.30;99.90
26212;DHT22;13951;49.516;6.094;2022-09-23T06:04:58;7.30;99.90
26212;DHT22;13951;49.516;6.094;2022-09-23T06:07:31;7.40;99.90
26212;DHT22;13951;49.516;6.094;2022-09-23T06:10:04;7.40;99.90
26212;DHT22;13951;49.516;6.094;2022-09-23T06:12:38;7.40;99.90
26212;DHT22;13951;49.516;6.094;2022-09-23T06:15:10;7.40;99.90
26212;DHT22;13951;49.516;6.094;2022-09-23T06:17:43;7.50;99.90
26212;DHT22;13951;49.516;6.094;2022-09-23T06:20:16;7.50;99.90
26212;DHT22;13951;49.516;6.094;2022-09-23T06:22:49;7.50;99.90
26212;DHT22;13951;49.516;6.094;2022-09-23T06:25:27;7.50;99.90
26212;DHT22;13951;49.516;6.094;2022-09-23T06:27:59;7.50;99.90
26212;DHT22;13951;49.516;6.094;2022-09-23T06:30:32;7.50;99.90
26212;DHT22;13951;49.516;6.094;2022-09-23T06:33:06;7.50;99.90
26212;DHT22;13951;49.516;6.094;2022-09-23T06:35:39;7.50;99.90
26212;DHT22;13951;49.516;6.094;2022-09-23T06:38:13;7.60;99.90
26212;DHT22;13951;49.516;6.094;2022-09-23T06:40:49;7.60;99.90
26212;DHT22;13951;49.516;6.094;2022-09-23T06:43:24;7.70;99.90
26212;DHT22;13951;49.516;6.094;2022-09-23T06:45:59;7.70;99.90
26212;DHT22;13951;49.516;6.094;2022-09-23T06:48:31;7.80;99.90
26212;DHT22;13951;49.516;6.094;2022-09-23T06:51:06;7.90;99.90
26212;DHT22;13951;49.516;6.094;2022-09-23T06:53:39;8.00;99.90
26212;DHT22;13951;49.516;6.094;2022-09-23T06:56:12;8.10;99.90
26212;DHT22;13951;49.516;6.094;2022-09-23T06:58:46;8.20;99.90
26212;DHT22;13951;49.516;6.094;2022-09-23T07:01:20;8.30;99.90
26212;DHT22;13951;49.516;6.094;2022-09-23T07:03:53;8.50;99.90
26212;DHT22;13951;49.516;6.094;2022-09-23T07:06:27;8.80;99.90
26212;DHT22;13951;49.516;6.094;2022-09-23T07:08:59;8.90;99.90
26212;DHT22;13951;49.516;6.094;2022-09-23T07:11:33;9.20;99.90
26212;DHT22;13951;49.516;6.094;2022-09-23T07:14:05;9.40;99.90
26212;DHT22;13951;49.516;6.094;2022-09-23T07:16:38;9.60;99.90
26212;DHT22;13951;49.516;6.094;2022-09-23T07:19:11;9.90;99.90
26212;DHT22;13951;49.516;6.094;2022-09-23T07:21:44;10.10;99.90
26212;DHT22;13951;49.516;6.094;2022-09-23T07:24:17;10.30;99.90
26212;DHT22;13951;49.516;6.094;2022-09-23T07:26:49;10.50;99.90
26212;DHT22;13951;49.516;6.094;2022-09-23T07:29:22;10.70;99.90
26212;DHT22;13951;49.516;6.094;2022-09-23T07:31:55;10.80;99.90
26212;DHT22;13951;49.516;6.094;2022-09-23T07:34:42;11.10;99.90
26212;DHT22;13951;49.516;6.094;2022-09-23T07:37:17;11.30;99.90
26212;DHT22;13951;49.516;6.094;2022-09-23T07:39:49;11.50;99.90
26212;DHT22;13951;49.516;6.094;2022-09-23T07:42:22;11.70;99.90
26212;DHT22;13951;49.516;6.094;2022-09-23T07:44:55;11.90;99.90
26212;DHT22;13951;49.516;6.094;2022-09-23T07:47:28;12.10;99.90
26212;DHT22;13951;49.516;6.094;2022-09-23T07:50:01;12.30;99.90
26212;DHT22;13951;49.516;6.094;2022-09-23T07:52:38;12.50;99.90
26212;DHT22;13951;49.516;6.094;2022-09-23T07:55:10;12.70;99.90
26212;DHT22;13951;49.516;6.094;2022-09-23T07:57:43;12.90;99.90
26212;DHT22;13951;49.516;6.094;2022-09-23T08:00:16;13.10;99.90
26212;DHT22;13951;49.516;6.094;2022-09-23T08:02:49;13.30;99.90
26212;DHT22;13951;49.516;6.094;2022-09-23T08:05:24;13.50;99.90
26212;DHT22;13951;49.516;6.094;2022-09-23T08:07:57;13.60;99.90
26212;DHT22;13951;49.516;6.094;2022-09-23T08:10:30;13.70;99.90
26212;DHT22;13951;49.516;6.094;2022-09-23T08:13:03;13.90;99.90
26212;DHT22;13951;49.516;6.094;2022-09-23T08:15:36;14.10;99.90
26212;DHT22;13951;49.516;6.094;2022-09-23T08:18:09;14.30;99.90
26212;DHT22;13951;49.516;6.094;2022-09-23T08:20:41;14.50;99.90
26212;DHT22;13951;49.516;6.094;2022-09-23T08:23:19;14.60;99.90
26212;DHT22;13951;49.516;6.094;2022-09-23T08:25:57;14.80;99.90
26212;DHT22;13951;49.516;6.094;2022-09-23T08:28:31;14.80;99.90
26212;DHT22;13951;49.516;6.094;2022-09-23T08:31:07;14.60;99.90
26212;DHT22;13951;49.516;6.094;2022-09-23T08:33:40;14.70;99.90
26212;DHT22;13951;49.516;6.094;2022-09-23T08:36:12;14.60;99.90
26212;DHT22;13951;49.516;6.094;2022-09-23T08:38:45;14.60;99.90
26212;DHT22;13951;49.516;6.094;2022-09-23T08:41:43;14.50;99.90
26212;DHT22;13951;49.516;6.094;2022-09-23T08:44:44;14.50;99.90
26212;DHT22;13951;49.516;6.094;2022-09-23T08:50:15;14.50;99.90
26212;DHT22;13951;49.516;6.094;2022-09-23T08:53:07;14.50;99.90
26212;DHT22;13951;49.516;6.094;2022-09-23T08:55:49;14.50;99.90
26212;DHT22;13951;49.516;6.094;2022-09-23T09:04:00;14.70;99.90
26212;DHT22;13951;49.516;6.094;2022-09-23T09:06:40;14.70;99.90
26212;DHT22;13951;49.516;6.094;2022-09-23T09:09:49;14.90;99.90
26212;DHT22;13951;49.516;6.094;2022-09-23T09:12:58;15.00;99.90
26212;DHT22;13951;49.516;6.094;2022-09-23T09:15:40;14.90;99.90
26212;DHT22;13951;49.516;6.094;2022-09-23T09:18:18;14.90;99.90
26212;DHT22;13951;49.516;6.094;2022-09-23T09:21:10;15.00;99.90
26212;DHT22;13951;49.516;6.094;2022-09-23T09:23:57;15.10;99.90
26212;DHT22;13951;49.516;6.094;2022-09-23T09:26:32;15.20;99.90
26212;DHT22;13951;49.516;6.094;2022-09-23T09:29:23;15.30;99.90
26212;DHT22;13951;49.516;6.094;2022-09-23T09:32:31;15.30;99.90
26212;DHT22;13951;49.516;6.094;2022-09-23T09:35:34;15.40;99.90
26212;DHT22;13951;49.516;6.094;2022-09-23T09:38:09;15.60;99.90
26212;DHT22;13951;49.516;6.094;2022-09-23T09:40:46;15.60;99.90
26212;DHT22;13951;49.516;6.094;2022-09-23T09:43:19;15.60;99.90
26212;DHT22;13951;49.516;6.094;2022-09-23T09:46:14;15.60;99.90
26212;DHT22;13951;49.516;6.094;2022-09-23T09:49:03;15.60;99.90
26212;DHT22;13951;49.516;6.094;2022-09-23T09:51:39;15.60;99.90
26212;DHT22;13951;49.516;6.094;2022-09-23T09:54:21;15.60;99.90
26212;DHT22;13951;49.516;6.094;2022-09-23T09:57:02;15.70;99.90
26212;DHT22;13951;49.516;6.094;2022-09-23T09:59:36;15.70;99.90
26212;DHT22;13951;49.516;6.094;2022-09-23T10:02:27;15.70;99.90
26212;DHT22;13951;49.516;6.094;2022-09-23T10:05:04;15.70;99.90
26212;DHT22;13951;49.516;6.094;2022-09-23T10:07:37;15.80;99.90
26212;DHT22;13951;49.516;6.094;2022-09-23T10:10:18;16.00;99.90
26212;DHT22;13951;49.516;6.094;2022-09-23T10:13:13;16.20;99.90
26212;DHT22;13951;49.516;6.094;2022-09-23T10:15:47;16.50;99.90
26212;DHT22;13951;49.516;6.094;2022-09-23T10:18:27;16.80;99.90
26212;DHT22;13951;49.516;6.094;2022-09-23T10:21:12;17.10;99.90
26212;DHT22;13951;49.516;6.094;2022-09-23T10:23:48;17.40;99.90
26212;DHT22;13951;49.516;6.094;2022-09-23T10:26:33;17.70;99.90
26212;DHT22;13951;49.516;6.094;2022-09-23T10:32:29;18.30;99.90
26212;DHT22;13951;49.516;6.094;2022-09-23T10:37:44;18.50;99.90
26212;DHT22;13951;49.516;6.094;2022-09-23T10:46:36;18.90;99.90
26212;DHT22;13951;49.516;6.094;2022-09-23T10:49:29;19.20;99.90
26212;DHT22;13951;49.516;6.094;2022-09-23T10:55:17;19.50;99.90
26212;DHT22;13951;49.516;6.094;2022-09-23T10:58:13;19.50;99.90
26212;DHT22;13951;49.516;6.094;2022-09-23T11:10:55;18.80;99.90
26212;DHT22;13951;49.516;6.094;2022-09-23T11:19:17;18.00;99.90
26212;DHT22;13951;49.516;6.094;2022-09-23T11:22:29;17.90;99.90
26212;DHT22;13951;49.516;6.094;2022-09-23T11:28:34;17.80;99.90
26212;DHT22;13951;49.516;6.094;2022-09-23T11:31:32;17.80;99.90
26212;DHT22;13951;49.516;6.094;2022-09-23T11:37:20;17.90;99.90
26212;DHT22;13951;49.516;6.094;2022-09-23T11:42:44;18.80;99.90
26212;DHT22;13951;49.516;6.094;2022-09-23T11:45:45;19.20;99.90
26212;DHT22;13951;49.516;6.094;2022-09-23T11:48:28;19.70;99.90
26212;DHT22;13951;49.516;6.094;2022-09-23T11:51:05;19.90;99.90
26212;DHT22;13951;49.516;6.094;2022-09-23T11:53:51;20.00;99.90
26212;DHT22;13951;49.516;6.094;2022-09-23T11:56:33;20.00;99.90
26212;DHT22;13951;49.516;6.094;2022-09-23T12:02:19;20.00;99.90
26212;DHT22;13951;49.516;6.094;2022-09-23T12:05:11;20.10;99.90
26212;DHT22;13951;49.516;6.094;2022-09-23T12:11:46;20.00;99.90
26212;DHT22;13951;49.516;6.094;2022-09-23T12:25:32;19.20;99.90
26212;DHT22;13951;49.516;6.094;2022-09-23T12:28:14;19.20;99.90
26212;DHT22;13951;49.516;6.094;2022-09-23T12:30:49;19.10;99.90
26212;DHT22;13951;49.516;6.094;2022-09-23T12:33:25;19.10;99.90
26212;DHT22;13951;49.516;6.094;2022-09-23T12:36:07;19.10;99.90
26212;DHT22;13951;49.516;6.094;2022-09-23T12:38:49;19.10;99.90
26212;DHT22;13951;49.516;6.094;2022-09-23T12:41:30;19.10;99.90
26212;DHT22;13951;49.516;6.094;2022-09-23T12:46:46;19.00;99.90
26212;DHT22;13951;49.516;6.094;2022-09-23T12:49:23;19.00;99.90
26212;DHT22;13951;49.516;6.094;2022-09-23T12:54:47;18.80;99.90
26212;DHT22;13951;49.516;6.094;2022-09-23T13:05:55;18.30;99.90
26212;DHT22;13951;49.516;6.094;2022-09-23T13:08:48;18.30;99.90
26212;DHT22;13951;49.516;6.094;2022-09-23T13:11:25;18.10;99.90
26212;DHT22;13951;49.516;6.094;2022-09-23T13:14:02;18.10;99.90
26212;DHT22;13951;49.516;6.094;2022-09-23T13:16:45;18.10;99.90
26212;DHT22;13951;49.516;6.094;2022-09-23T13:22:05;17.90;99.90
26212;DHT22;13951;49.516;6.094;2022-09-23T13:25:00;17.90;99.90
26212;DHT22;13951;49.516;6.094;2022-09-23T13:27:34;17.90;99.90
26212;DHT22;13951;49.516;6.094;2022-09-23T13:30:18;17.90;99.90
26212;DHT22;13951;49.516;6.094;2022-09-23T13:33:11;17.90;99.90
26212;DHT22;13951;49.516;6.094;2022-09-23T13:35:48;17.90;99.90
26212;DHT22;13951;49.516;6.094;2022-09-23T13:38:26;17.90;99.90
26212;DHT22;13951;49.516;6.094;2022-09-23T13:41:09;17.90;99.90
26212;DHT22;13951;49.516;6.094;2022-09-23T13:43:48;17.90;99.90
26212;DHT22;13951;49.516;6.094;2022-09-23T13:46:25;17.90;99.90
26212;DHT22;13951;49.516;6.094;2022-09-23T13:48:58;18.00;99.90
26212;DHT22;13951;49.516;6.094;2022-09-23T13:51:34;18.00;99.90
26212;DHT22;13951;49.516;6.094;2022-09-23T13:54:29;18.00;99.90
26212;DHT22;13951;49.516;6.094;2022-09-23T13:57:03;18.10;99.90
26212;DHT22;13951;49.516;6.094;2022-09-23T13:59:39;18.10;99.90
26212;DHT22;13951;49.516;6.094;2022-09-23T14:02:14;18.10;99.90
26212;DHT22;13951;49.516;6.094;2022-09-23T14:04:48;18.10;99.90
26212;DHT22;13951;49.516;6.094;2022-09-23T14:07:22;18.10;99.90
26212;DHT22;13951;49.516;6.094;2022-09-23T14:09:55;18.10;99.90
26212;DHT22;13951;49.516;6.094;2022-09-23T14:12:28;18.10;99.90
26212;DHT22;13951;49.516;6.094;2022-09-23T14:15:01;18.10;99.90
26212;DHT22;13951;49.516;6.094;2022-09-23T14:17:34;18.00;99.90
26212;DHT22;13951;49.516;6.094;2022-09-23T14:20:18;18.00;99.90
26212;DHT22;13951;49.516;6.094;2022-09-23T14:23:11;18.10;99.90
26212;DHT22;13951;49.516;6.094;2022-09-23T14:25:46;18.10;99.90
26212;DHT22;13951;49.516;6.094;2022-09-23T14:28:21;18.10;99.90
26212;DHT22;13951;49.516;6.094;2022-09-23T14:30:55;18.20;99.90
26212;DHT22;13951;49.516;6.094;2022-09-23T14:33:32;18.20;99.90
26212;DHT22;13951;49.516;6.094;2022-09-23T14:36:16;18.20;99.90
26212;DHT22;13951;49.516;6.094;2022-09-23T14:39:09;18.20;99.90
26212;DHT22;13951;49.516;6.094;2022-09-23T14:41:44;18.20;99.90
26212;DHT22;13951;49.516;6.094;2022-09-23T14:44:20;18.20;99.90
26212;DHT22;13951;49.516;6.094;2022-09-23T14:46:58;18.30;99.90
26212;DHT22;13951;49.516;6.094;2022-09-23T14:49:31;18.20;99.90
26212;DHT22;13951;49.516;6.094;2022-09-23T14:52:05;18.20;99.90
26212;DHT22;13951;49.516;6.094;2022-09-23T14:57:28;18.10;99.90
26212;DHT22;13951;49.516;6.094;2022-09-23T15:00:15;18.10;99.90
26212;DHT22;13951;49.516;6.094;2022-09-23T15:03:00;18.10;99.90
26212;DHT22;13951;49.516;6.094;2022-09-23T15:08:17;18.00;99.90
26212;DHT22;13951;49.516;6.094;2022-09-23T15:10:52;18.00;99.90
26212;DHT22;13951;49.516;6.094;2022-09-23T15:13:27;18.00;99.90
26212;DHT22;13951;49.516;6.094;2022-09-23T15:16:01;17.90;99.90
26212;DHT22;13951;49.516;6.094;2022-09-23T15:18:37;17.90;99.90
26212;DHT22;13951;49.516;6.094;2022-09-23T15:21:14;17.90;99.90
26212;DHT22;13951;49.516;6.094;2022-09-23T15:23:50;17.90;99.90
26212;DHT22;13951;49.516;6.094;2022-09-23T15:26:25;17.80;
26212;DHT22;13951;49.516;6.094;2022-09-23T15:29:11;17.90;99.90
26212;DHT22;13951;49.516;6.094;2022-09-23T15:31:45;17.80;99.90
26212;DHT22;13951;49.516;6.094;2022-09-23T15:34:18;17.80;99.90
26212;DHT22;13951;49.516;6.094;2022-09-23T15:36:52;17.80;99.90
26212;DHT22;13951;49.516;6.094;2022-09-23T15:39:25;17.80;99.90
26212;DHT22;13951;49.516;6.094;2022-09-23T15:42:08;17.70;99.90
26212;DHT22;13951;49.516;6.094;2022-09-23T15:44:41;17.70;99.90
26212;DHT22;13951;49.516;6.094;2022-09-23T15:47:15;17.70;99.90
26212;DHT22;13951;49.516;6.094;2022-09-23T15:49:53;17.70;99.90
26212;DHT22;13951;49.516;6.094;2022-09-23T15:52:26;17.60;99.90
26212;DHT22;13951;49.516;6.094;2022-09-23T15:54:58;17.60;99.90
26212;DHT22;13951;49.516;6.094;2022-09-23T15:57:31;17.60;99.90
26212;DHT22;13951;49.516;6.094;2022-09-23T16:00:04;17.60;99.90
26212;DHT22;13951;49.516;6.094;2022-09-23T16:02:45;17.50;99.90
26212;DHT22;13951;49.516;6.094;2022-09-23T16:05:22;17.50;99.90
26212;DHT22;13951;49.516;6.094;2022-09-23T16:07:56;17.40;99.90
26212;DHT22;13951;49.516;6.094;2022-09-23T16:10:29;17.40;99.90
26212;DHT22;13951;49.516;6.094;2022-09-23T16:13:06;17.40;99.90
26212;DHT22;13951;49.516;6.094;2022-09-23T16:15:40;17.40;99.90
26212;DHT22;13951;49.516;6.094;2022-09-23T16:18:13;17.40;99.90
26212;DHT22;13951;49.516;6.094;2022-09-23T16:20:46;17.30;99.90
26212;DHT22;13951;49.516;6.094;2022-09-23T16:23:22;17.30;99.90
26212;DHT22;13951;49.516;6.094;2022-09-23T16:26:24;17.20;99.90
26212;DHT22;13951;49.516;6.094;2022-09-23T16:28:58;17.20;99.90
26212;DHT22;13951;49.516;6.094;2022-09-23T16:31:31;17.10;99.90
26212;DHT22;13951;49.516;6.094;2022-09-23T16:34:05;17.00;99.90
26212;DHT22;13951;49.516;6.094;2022-09-23T16:36:39;17.00;99.90
26212;DHT22;13951;49.516;6.094;2022-09-23T16:39:13;16.90;99.90
26212;DHT22;13951;49.516;6.094;2022-09-23T16:41:46;16.90;99.90
26212;DHT22;13951;49.516;6.094;2022-09-23T16:44:19;16.90;99.90
26212;DHT22;13951;49.516;6.094;2022-09-23T16:46:52;16.80;99.90
26212;DHT22;13951;49.516;6.094;2022-09-23T16:49:25;16.80;99.90
26212;DHT22;13951;49.516;6.094;2022-09-23T16:51:58;16.70;99.90
26212;DHT22;13951;49.516;6.094;2022-09-23T16:54:33;16.70;99.90
26212;DHT22;13951;49.516;6.094;2022-09-23T16:57:08;16.60;99.90
26212;DHT22;13951;49.516;6.094;2022-09-23T16:59:43;16.50;99.90
26212;DHT22;13951;49.516;6.094;2022-09-23T17:02:35;16.50;99.90
26212;DHT22;13951;49.516;6.094;2022-09-23T17:05:29;16.40;99.90
26212;DHT22;13951;49.516;6.094;2022-09-23T17:08:02;16.30;99.90
26212;DHT22;13951;49.516;6.094;2022-09-23T17:10:35;16.30;99.90
26212;DHT22;13951;49.516;6.094;2022-09-23T17:13:09;16.20;99.90
26212;DHT22;13951;49.516;6.094;2022-09-23T17:15:42;16.20;99.90
26212;DHT22;13951;49.516;6.094;2022-09-23T17:18:15;16.10;99.90
26212;DHT22;13951;49.516;6.094;2022-09-23T17:21:05;16.10;99.90
26212;DHT22;13951;49.516;6.094;2022-09-23T17:23:38;16.00;99.90
26212;DHT22;13951;49.516;6.094;2022-09-23T17:26:11;15.90;99.90
26212;DHT22;13951;49.516;6.094;2022-09-23T17:28:44;15.90;99.90
26212;DHT22;13951;49.516;6.094;2022-09-23T17:31:17;15.80;99.90
26212;DHT22;13951;49.516;6.094;2022-09-23T17:33:50;15.80;99.90
26212;DHT22;13951;49.516;6.094;2022-09-23T17:36:24;15.70;99.90
26212;DHT22;13951;49.516;6.094;2022-09-23T17:38:57;15.70;99.90
26212;DHT22;13951;49.516;6.094;2022-09-23T17:41:29;15.60;99.90
26212;DHT22;13951;49.516;6.094;2022-09-23T17:44:02;15.60;99.90
26212;DHT22;13951;49.516;6.094;2022-09-23T17:46:36;15.50;99.90
26212;DHT22;13951;49.516;6.094;2022-09-23T17:49:08;15.50;99.90
26212;DHT22;13951;49.516;6.094;2022-09-23T17:51:41;15.40;99.90
26212;DHT22;13951;49.516;6.094;2022-09-23T17:54:14;15.40;99.90
26212;DHT22;13951;49.516;6.094;2022-09-23T17:56:47;15.30;99.90
26212;DHT22;13951;49.516;6.094;2022-09-23T17:59:19;15.20;99.90
26212;DHT22;13951;49.516;6.094;2022-09-23T18:01:52;15.20;99.90
26212;DHT22;13951;49.516;6.094;2022-09-23T18:04:25;15.20;99.90
26212;DHT22;13951;49.516;6.094;2022-09-23T18:06:58;15.20;99.90
26212;DHT22;13951;49.516;6.094;2022-09-23T18:09:31;15.10;99.90
26212;DHT22;13951;49.516;6.094;2022-09-23T18:12:04;15.10;99.90
26212;DHT22;13951;49.516;6.094;2022-09-23T18:14:36;15.00;99.90
26212;DHT22;13951;49.516;6.094;2022-09-23T18:17:09;15.00;99.90
26212;DHT22;13951;49.516;6.094;2022-09-23T18:19:42;14.90;99.90
26212;DHT22;13951;49.516;6.094;2022-09-23T18:22:17;14.90;99.90
26212;DHT22;13951;49.516;6.094;2022-09-23T18:24:51;14.90;99.90
26212;DHT22;13951;49.516;6.094;2022-09-23T18:27:23;14.80;99.90
26212;DHT22;13951;49.516;6.094;2022-09-23T18:29:56;14.80;99.90
26212;DHT22;13951;49.516;6.094;2022-09-23T18:32:29;14.70;99.90
26212;DHT22;13951;49.516;6.094;2022-09-23T18:35:03;14.70;99.90
26212;DHT22;13951;49.516;6.094;2022-09-23T18:37:36;14.50;99.90
26212;DHT22;13951;49.516;6.094;2022-09-23T18:40:09;14.50;99.90
26212;DHT22;13951;49.516;6.094;2022-09-23T18:42:46;14.40;99.90
26212;DHT22;13951;49.516;6.094;2022-09-23T18:45:19;14.30;99.90
26212;DHT22;13951;49.516;6.094;2022-09-23T18:47:52;14.20;99.90
26212;DHT22;13951;49.516;6.094;2022-09-23T18:50:43;14.20;99.90
26212;DHT22;13951;49.516;6.094;2022-09-23T18:53:16;14.10;99.90